In Rescue
 
Open Full Screen Window  High Contrast Mode
Wind Gusting 24 knots
18
May 19, 2019 12:37 PM CDT
Weather Information
Wind Direction
  030 °
Wind Speed
  18 kt (21 mph)
Wind Gust
  24 kt (28 mph)
Altimeter
29.82 in
Visibility
10 SM
Temperature
08° C
46° F
Dewpoint
05° C
41° F
Humidity
82%
1hr Rain Fall
00.00 in.
24hr Rain Fall
00.01 in.
Sky Condition
Overcast @ 1,500 ft
MVFR

METAR KGDB 191737Z AUTO 03018G24KT 10SM OVC015 08/05 A2982 RMK AO2 T00750051

FAA Disclaimer: The data displayed is for advisory purposes only and is not to be used for flight planning or operations.